Time;durP1;ratioP1;P1;durP2;ratioP2;P2;SDS_P1;SDS_P2;PMS_P1;PMS_P2;Temp;Humidity;BMP_temperature;BMP_pressure;BME280_temperature;BME280_humidity;BME280_pressure;Samples;Min_cycle;Max_cycle;Signal;HPM_P1;HPM_P2
2022/10/31 00:00:47;;;;;;;51.78;13.38;;;;;;;7.86;93.78;94402.38;5048217;28;20090;-66
2022/10/31 00:03:14;;;;;;;52.35;13.05;;;;;;;7.78;94.15;94399.63;5048877;28;20041;-71
2022/10/31 00:05:46;;;;;;;30.23;8.60;;;;;;;7.82;93.54;94398.88;5048221;28;20045;-70
2022/10/31 00:08:14;;;;;;;22.08;7.45;;;;;;;7.80;93.41;94399.25;5048814;28;20055;-67
2022/10/31 00:10:41;;;;;;;15.93;6.75;;;;;;;7.82;93.07;94399.63;5048104;28;20049;-66
2022/10/31 00:13:09;;;;;;;18.05;5.88;;;;;;;7.83;92.47;94405.88;5048654;28;20102;-66
2022/10/31 00:15:38;;;;;;;14.80;5.75;;;;;;;7.84;92.75;94404.72;5048088;28;20122;-67
2022/10/31 00:18:06;;;;;;;12.07;5.43;;;;;;;7.74;92.87;94403.53;5048577;28;20041;-67
2022/10/31 00:20:34;;;;;;;23.30;10.27;;;;;;;7.76;92.31;94403.91;5048127;28;20420;-66
2022/10/31 00:23:02;;;;;;;17.23;8.05;;;;;;;7.72;92.54;94401.16;5048756;28;20049;-66
2022/10/31 00:25:33;;;;;;;17.42;5.97;;;;;;;7.66;94.51;94404.66;5047280;28;20037;-72
2022/10/31 00:28:00;;;;;;;13.77;6.20;;;;;;;7.63;94.57;94400.75;5047791;28;20121;-68
2022/10/31 00:30:27;;;;;;;12.60;5.37;;;;;;;7.67;93.83;94398.81;5048922;28;20057;-66
2022/10/31 00:32:54;;;;;;;14.32;5.38;;;;;;;7.64;92.94;94402.31;5048186;28;20047;-69
2022/10/31 00:35:21;;;;;;;22.77;8.13;;;;;;;7.54;92.72;94406.56;5048564;28;20059;-66
2022/10/31 00:37:48;;;;;;;19.40;7.30;;;;;;;7.48;92.89;94405.38;5047773;28;20427;-66
2022/10/31 00:40:14;;;;;;;18.48;7.18;;;;;;;7.39;93.81;94399.50;5048556;28;20041;-70
2022/10/31 00:42:41;;;;;;;17.60;7.13;;;;;;;7.42;93.95;94400.66;5047996;28;20417;-68
2022/10/31 00:45:09;;;;;;;21.50;7.75;;;;;;;7.39;93.61;94402.22;5048368;28;20098;-66
2022/10/31 00:47:36;;;;;;;27.63;10.07;;;;;;;7.40;93.42;94403.78;5047198;28;20049;-68
2022/10/31 00:50:08;;;;;;;25.40;8.27;;;;;;;7.44;92.86;94396.38;5048315;28;20071;-65
2022/10/31 00:52:34;;;;;;;23.85;8.20;;;;;;;7.42;93.04;94404.16;5047513;28;20047;-65
2022/10/31 00:55:01;;;;;;;17.67;6.90;;;;;;;7.39;92.63;94400.25;5051336;28;20095;-67
2022/10/31 00:57:28;;;;;;;20.95;7.90;;;;;;;7.36;92.64;94397.50;5054644;28;20504;-65
2022/10/31 00:59:54;;;;;;;21.13;8.38;;;;;;;7.36;92.59;94400.25;5054287;28;20047;-67
2022/10/31 01:02:21;;;;;;;24.45;7.82;;;;;;;7.34;92.60;94406.06;5054824;28;20045;-66
2022/10/31 01:04:48;;;;;;;15.23;6.60;;;;;;;7.35;92.75;94401.41;5054156;28;20041;-68
2022/10/31 01:07:15;;;;;;;21.17;7.70;;;;;;;7.32;91.99;94400.22;5054887;28;20086;-66
2022/10/31 01:09:41;;;;;;;20.40;7.25;;;;;;;7.17;92.27;94402.09;5054201;28;20052;-64
2022/10/31 01:12:08;;;;;;;20.60;8.05;;;;;;;7.15;91.85;94401.69;5054805;28;20063;-65
2022/10/31 01:14:35;;;;;;;17.33;6.57;;;;;;;7.04;93.29;94395.38;5053983;28;20083;-69
2022/10/31 01:17:01;;;;;;;33.95;11.57;;;;;;;6.89;95.11;94397.25;5054684;28;20045;-65
2022/10/31 01:19:28;;;;;;;27.97;10.10;;;;;;;7.00;94.21;94394.59;5054848;28;20056;-65
2022/10/31 01:21:55;;;;;;;41.90;14.68;;;;;;;7.05;94.36;94396.97;5054273;28;20347;-67
2022/10/31 01:24:22;;;;;;;51.45;14.90;;;;;;;7.06;94.41;94393.06;5054431;28;20125;-67
2022/10/31 01:26:48;;;;;;;31.27;10.52;;;;;;;7.11;93.21;94394.66;5052502;28;20041;-67
2022/10/31 01:29:15;;;;;;;24.60;8.40;;;;;;;7.12;93.21;94391.56;5054720;28;20252;-67
2022/10/31 01:31:41;;;;;;;21.73;8.63;;;;;;;6.99;94.02;94390.31;5053754;28;20053;-70
2022/10/31 01:34:13;;;;;;;49.38;16.08;;;;;;;6.88;94.18;94392.16;5054664;28;20041;-66
2022/10/31 01:36:40;;;;;;;23.35;9.10;;;;;;;6.76;94.63;94394.06;5053819;28;20109;-67
2022/10/31 01:39:11;;;;;;;22.65;7.60;;;;;;;6.86;94.31;94384.38;5054392;28;20033;-67
2022/10/31 01:41:41;;;;;;;21.17;7.85;;;;;;;6.91;93.35;94384.00;5052670;28;20048;-67
2022/10/31 01:44:13;;;;;;;23.23;8.57;;;;;;;6.95;93.53;94390.28;5054422;28;20055;-65
2022/10/31 01:46:46;;;;;;;18.40;6.97;;;;;;;6.94;93.49;94383.28;5053676;28;20053;-65
2022/10/31 01:49:18;;;;;;;20.77;7.20;;;;;;;6.89;94.12;94391.81;5054656;28;20053;-67
2022/10/31 01:52:13;;;;;;;14.77;6.53;;;;;;;6.91;93.80;94389.47;5053623;28;20400;-64
2022/10/31 01:54:45;;;;;;;15.05;6.10;;;;;;;6.87;94.21;94382.44;5052376;28;20170;-65
2022/10/31 01:57:14;;;;;;;24.67;9.30;;;;;;;6.72;94.59;94387.00;5054154;28;20397;-69
2022/10/31 01:59:49;;;;;;;18.08;7.90;;;;;;;6.72;94.79;94382.34;5053642;28;20494;-65
2022/10/31 02:02:18;;;;;;;14.23;6.32;;;;;;;6.71;94.60;94380.78;5054528;28;20047;-65
2022/10/31 02:04:47;;;;;;;15.15;5.97;;;;;;;6.70;94.59;94381.94;5053632;28;20045;-66
2022/10/31 02:07:18;;;;;;;14.82;6.50;;;;;;;6.70;94.46;94383.88;5051100;28;20070;-67
2022/10/31 02:09:47;;;;;;;18.40;7.20;;;;;;;6.68;94.90;94378.00;5049353;28;20045;-70
2022/10/31 02:12:15;;;;;;;20.45;6.88;;;;;;;6.66;94.99;94386.59;5050871;28;20041;-65
2022/10/31 02:14:42;;;;;;;18.98;7.10;;;;;;;6.59;94.78;94381.06;5050134;28;20040;-66
2022/10/31 02:17:09;;;;;;;20.35;6.30;;;;;;;6.58;94.49;94377.56;5050828;28;20037;-69
2022/10/31 02:19:48;;;;;;;14.90;5.70;;;;;;;6.62;94.96;94383.06;5050211;28;20490;-68
2022/10/31 02:22:39;;;;;;;13.70;5.80;;;;;;;6.60;94.44;94377.97;5051205;28;20041;-65
2022/10/31 02:25:26;;;;;;;16.27;6.32;;;;;;;6.49;95.27;94376.31;5050009;28;20475;-69
2022/10/31 02:27:58;;;;;;;14.88;5.45;;;;;;;6.56;94.53;94374.44;5050052;28;20058;-67
2022/10/31 02:30:37;;;;;;;13.95;5.15;;;;;;;6.45;94.54;94372.78;5050921;28;20061;-64
2022/10/31 02:33:09;;;;;;;11.70;5.47;;;;;;;6.45;95.06;94361.88;5049702;28;20347;-67
2022/10/31 02:35:50;;;;;;;13.90;5.27;;;;;;;6.48;95.24;94361.91;5048949;28;20049;-71
2022/10/31 02:39:07;;;;;;;13.55;5.13;;;;;;;6.33;96.07;94360.22;5050679;28;20049;-69
2022/10/31 02:41:40;;;;;;;12.02;5.05;;;;;;;6.34;95.71;94367.25;5015444;28;20819;-65
2022/10/31 02:44:21;;;;;;;13.00;5.28;;;;;;;6.33;96.66;94357.50;5050581;28;20047;-65
2022/10/31 02:46:52;;;;;;;11.00;5.30;;;;;;;6.37;96.43;94361.03;5049612;28;20061;-65
2022/10/31 02:49:41;;;;;;;15.30;5.63;;;;;;;6.21;97.15;94358.56;5050473;28;20047;-64
2022/10/31 02:52:17;;;;;;;13.10;5.55;;;;;;;6.17;97.30;94361.25;5049489;28;20221;-67
2022/10/31 02:54:46;;;;;;;14.65;5.55;;;;;;;6.23;97.48;94358.19;5049432;28;20102;-69
2022/10/31 02:57:14;;;;;;;11.70;5.38;;;;;;;6.12;98.75;94358.91;5050063;28;20401;-68
2022/10/31 02:59:47;;;;;;;13.15;5.22;;;;;;;6.18;98.64;94353.88;5049174;28;20049;-68
2022/10/31 03:02:19;;;;;;;13.83;5.20;;;;;;;6.24;97.42;94359.75;5049943;28;20413;-68
2022/10/31 03:04:56;;;;;;;12.35;5.10;;;;;;;6.26;97.74;94360.97;5049538;28;20045;-65
2022/10/31 03:07:42;;;;;;;9.98;5.40;;;;;;;6.27;98.04;94357.06;5050033;28;20170;-65
2022/10/31 03:10:18;;;;;;;12.57;5.00;;;;;;;6.31;97.64;94354.38;5049058;28;21529;-65
2022/10/31 03:13:10;;;;;;;12.85;5.40;;;;;;;6.26;97.21;94355.50;5049312;28;20086;-67
2022/10/31 03:15:51;;;;;;;14.50;5.50;;;;;;;6.17;98.14;94355.03;5049328;28;20094;-67
2022/10/31 03:18:24;;;;;;;11.50;5.22;;;;;;;6.21;98.49;94358.56;5048643;28;20041;-68
2022/10/31 03:21:05;;;;;;;14.13;5.85;;;;;;;6.19;98.87;94358.16;5049081;28;20399;-65
2022/10/31 03:23:35;;;;;;;10.95;5.82;;;;;;;6.20;98.22;94348.84;5049841;28;20048;-65
2022/10/31 03:26:05;;;;;;;12.80;5.63;;;;;;;6.15;98.47;94352.69;5048457;28;20908;-68
2022/10/31 03:28:43;;;;;;;16.00;5.40;;;;;;;6.00;98.25;94353.72;5049662;28;20385;-70
2022/10/31 03:31:12;;;;;;;10.23;5.15;;;;;;;6.05;98.12;94358.03;5048763;28;20391;-66
2022/10/31 03:33:42;;;;;;;10.77;5.30;;;;;;;6.05;98.21;94350.66;5048638;28;20049;-66
2022/10/31 03:36:11;;;;;;;11.90;5.50;;;;;;;5.92;98.75;94346.63;5049400;28;20483;-64
2022/10/31 03:38:40;;;;;;;13.65;5.38;;;;;;;5.83;99.84;94346.91;5048803;28;20056;-65
2022/10/31 03:41:13;;;;;;;10.30;4.77;;;;;;;5.87;99.59;94342.28;5049239;28;20489;-64
2022/10/31 03:43:46;;;;;;;13.75;5.15;;;;;;;5.95;99.19;94346.66;5047791;28;20417;-64
2022/10/31 03:46:12;;;;;;;11.13;5.50;;;;;;;5.92;98.76;94346.63;5049141;28;20041;-64
2022/10/31 03:48:39;;;;;;;9.57;5.05;;;;;;;5.74;99.12;94341.78;5048603;28;20440;-64
2022/10/31 03:51:24;;;;;;;60.30;29.65;;;;;;;5.57;100.00;94335.00;5048955;28;20051;-64
2022/10/31 03:54:13;;;;;;;20.53;9.33;;;;;;;5.65;100.00;94337.78;5048703;28;20497;-69
2022/10/31 03:57:02;;;;;;;13.45;6.05;;;;;;;5.68;100.00;94348.72;5048630;28;20051;-66
2022/10/31 03:59:36;;;;;;;11.50;5.60;;;;;;;5.72;99.19;94344.09;5048925;28;20045;-64
2022/10/31 04:02:08;;;;;;;14.57;5.15;;;;;;;5.68;99.46;94337.06;5047934;28;20391;-68
2022/10/31 04:04:36;;;;;;;13.23;5.30;;;;;;;5.71;100.00;94339.00;5048672;28;20067;-69
2022/10/31 04:07:06;;;;;;;13.97;4.87;;;;;;;5.76;100.00;94344.91;5047377;28;20044;-69
2022/10/31 04:09:36;;;;;;;11.93;5.22;;;;;;;5.77;99.63;94338.28;5048493;28;20052;-64
2022/10/31 04:12:08;;;;;;;12.52;5.35;;;;;;;5.76;99.61;94333.25;5048738;28;20049;-65
2022/10/31 04:14:39;;;;;;;13.23;5.30;;;;;;;5.77;99.83;94332.06;5047395;28;20045;-68
2022/10/31 04:17:10;;;;;;;11.35;5.38;;;;;;;5.80;99.09;94334.84;5048781;28;20052;-70
2022/10/31 04:19:36;;;;;;;9.40;4.93;;;;;;;5.76;99.02;94339.47;5048228;28;20399;-66
2022/10/31 04:22:03;;;;;;;10.05;5.18;;;;;;;5.74;98.89;94328.16;5048412;28;20425;-67
2022/10/31 04:24:30;;;;;;;16.02;6.03;;;;;;;5.72;98.95;94335.91;5048583;28;20116;-68
2022/10/31 04:26:57;;;;;;;11.63;5.30;;;;;;;5.70;98.76;94329.28;5047849;28;20040;-70
2022/10/31 04:29:24;;;;;;;11.07;4.80;;;;;;;5.71;98.51;94326.16;5047108;28;20057;-66
2022/10/31 04:31:50;;;;;;;13.13;5.23;;;;;;;5.73;98.34;94323.09;5047987;28;20125;-64
2022/10/31 04:34:17;;;;;;;12.93;4.88;;;;;;;5.72;98.23;94319.59;5048302;28;20039;-63
2022/10/31 04:36:45;;;;;;;10.52;5.30;;;;;;;5.71;98.29;94318.00;5047496;28;20041;-73
2022/10/31 04:39:11;;;;;;;12.57;5.25;;;;;;;5.71;98.84;94312.56;5048149;28;20049;-66
2022/10/31 04:41:38;;;;;;;42.63;19.85;;;;;;;5.71;98.52;94317.22;5047838;28;20049;-65
2022/10/31 04:44:05;;;;;;;17.80;7.60;;;;;;;5.65;99.20;94319.50;5048038;28;20045;-65
2022/10/31 04:46:32;;;;;;;13.95;6.22;;;;;;;5.65;99.00;94316.00;5047913;28;20063;-64
2022/10/31 04:48:58;;;;;;;14.65;6.18;;;;;;;5.68;98.39;94318.00;5047217;28;20279;-64
2022/10/31 04:51:25;;;;;;;14.13;5.25;;;;;;;5.66;98.33;94315.63;5048077;28;20045;-69
2022/10/31 04:53:52;;;;;;;12.25;5.60;;;;;;;5.57;98.34;94312.41;5047453;28;20045;-68
2022/10/31 04:56:18;;;;;;;11.43;5.43;;;;;;;5.49;98.59;94313.50;5048066;28;20040;-65
2022/10/31 04:58:45;;;;;;;11.82;5.97;;;;;;;5.49;98.18;94314.28;5047423;28;20041;-67
2022/10/31 05:01:12;;;;;;;30.60;11.38;;;;;;;5.39;99.17;94315.75;5047876;28;20347;-65
2022/10/31 05:03:39;;;;;;;24.08;10.30;;;;;;;5.44;99.50;94311.91;5047613;28;20490;-65
2022/10/31 05:06:06;;;;;;;14.80;6.45;;;;;;;5.44;99.66;94309.19;5048034;28;20490;-69
2022/10/31 05:08:33;;;;;;;11.37;5.67;;;;;;;5.45;99.61;94307.25;5047868;28;20065;-65
2022/10/31 05:11:01;;;;;;;10.95;5.20;;;;;;;5.40;99.99;94306.41;5048121;28;20406;-67
2022/10/31 05:13:30;;;;;;;12.65;5.47;;;;;;;5.40;100.00;94303.69;5048034;28;20047;-69
2022/10/31 05:15:57;;;;;;;18.35;6.13;;;;;;;5.35;100.00;94305.97;5047464;28;20051;-67
2022/10/31 05:18:24;;;;;;;14.32;5.72;;;;;;;5.39;99.64;94304.06;5047871;28;20386;-66
2022/10/31 05:20:50;;;;;;;13.83;5.63;;;;;;;5.39;99.44;94301.34;5047429;28;20055;-68
2022/10/31 05:23:17;;;;;;;14.18;5.72;;;;;;;5.35;99.37;94303.25;5046910;28;20039;-69
2022/10/31 05:25:43;;;;;;;16.88;8.20;;;;;;;5.37;99.28;94309.09;5047567;28;20291;-69
2022/10/31 05:28:10;;;;;;;17.40;8.32;;;;;;;5.31;99.76;94300.50;5047599;28;20047;-67
2022/10/31 05:30:37;;;;;;;14.57;7.65;;;;;;;5.33;99.11;94295.47;5047310;28;20053;-67
2022/10/31 05:33:03;;;;;;;17.80;8.87;;;;;;;5.30;99.94;94292.72;5047516;28;20041;-64
2022/10/31 05:35:32;;;;;;;12.10;6.53;;;;;;;5.32;99.78;94291.19;5047735;28;20049;-69
2022/10/31 05:37:59;;;;;;;17.75;9.45;;;;;;;5.29;99.61;94291.13;5045391;28;20627;-70
2022/10/31 05:40:27;;;;;;;14.40;6.70;;;;;;;5.23;100.00;94287.19;5047753;28;20049;-69
2022/10/31 05:42:55;;;;;;;14.25;6.80;;;;;;;5.13;100.00;94280.47;5049690;28;20049;-68
2022/10/31 05:45:23;;;;;;;21.00;9.77;;;;;;;5.18;100.00;94278.19;5051490;28;20057;-64
2022/10/31 05:47:54;;;;;;;17.92;9.52;;;;;;;5.25;100.00;94284.88;5050449;28;20044;-67
2022/10/31 05:50:22;;;;;;;55.47;26.35;;;;;;;5.25;100.00;94282.16;5051414;28;20044;-67
2022/10/31 05:52:56;;;;;;;17.25;7.78;;;;;;;5.27;99.21;94279.84;5049502;28;20053;-65
2022/10/31 05:55:22;;;;;;;15.05;7.40;;;;;;;5.28;99.29;94281.41;5051396;28;20060;-66
2022/10/31 05:57:49;;;;;;;15.23;6.80;;;;;;;5.26;98.68;94279.06;5050617;28;20048;-65
2022/10/31 06:00:16;;;;;;;18.38;9.07;;;;;;;5.30;98.83;94285.31;5049448;28;20408;-65
2022/10/31 06:02:42;;;;;;;17.75;9.70;;;;;;;5.26;98.16;94287.22;5032437;28;20134;-67
2022/10/31 06:05:09;;;;;;;16.80;7.43;;;;;;;5.24;98.66;94281.38;5038638;28;20494;-65
2022/10/31 06:07:36;;;;;;;22.38;11.75;;;;;;;5.29;98.67;94277.53;5037592;28;20042;-66
2022/10/31 06:10:05;;;;;;;15.50;7.50;;;;;;;5.26;99.11;94281.78;5059002;28;20063;-64
2022/10/31 06:12:37;;;;;;;13.20;6.07;;;;;;;5.22;98.99;94282.91;5032461;28;20064;-64
2022/10/31 06:15:05;;;;;;;12.85;6.25;;;;;;;5.15;99.81;94273.50;5029927;28;21637;-66
2022/10/31 06:17:33;;;;;;;10.80;6.03;;;;;;;5.38;99.62;94286.19;5031146;28;20061;-68
2022/10/31 06:20:01;;;;;;;14.93;6.47;;;;;;;5.49;98.93;94281.63;5030077;28;20709;-66
2022/10/31 06:22:27;;;;;;;16.67;6.80;;;;;;;5.51;98.14;94281.25;5030767;28;20046;-66
2022/10/31 06:24:54;;;;;;;15.57;6.80;;;;;;;5.68;97.53;94277.91;5030121;28;20042;-65
2022/10/31 06:27:21;;;;;;;15.35;7.20;;;;;;;5.85;96.85;94276.50;5013184;28;20067;-66
2022/10/31 06:29:48;;;;;;;12.25;6.40;;;;;;;5.74;95.81;94278.38;5030394;28;20103;-66
2022/10/31 06:32:15;;;;;;;12.30;6.45;;;;;;;5.82;96.58;94284.66;5030811;28;20049;-64
2022/10/31 06:34:42;;;;;;;12.00;6.60;;;;;;;6.03;95.52;94284.06;5030439;28;20409;-67
2022/10/31 06:37:11;;;;;;;14.32;6.50;;;;;;;6.15;94.25;94275.59;5030463;28;20042;-64
2022/10/31 06:39:38;;;;;;;14.15;7.00;;;;;;;6.29;93.49;94275.69;5030040;28;20053;-71
2022/10/31 06:42:05;;;;;;;11.70;5.80;;;;;;;6.47;93.18;94277.78;5030175;28;20038;-66
2022/10/31 06:44:32;;;;;;;15.32;6.38;;;;;;;6.38;92.14;94267.97;5030461;28;20418;-66
2022/10/31 06:46:58;;;;;;;13.17;6.67;;;;;;;6.55;92.72;94268.47;5029152;28;20368;-68
2022/10/31 06:49:25;;;;;;;15.05;7.22;;;;;;;6.64;92.31;94270.84;5029071;28;20041;-65
2022/10/31 06:51:52;;;;;;;15.18;7.15;;;;;;;6.86;91.37;94267.09;5029641;28;20527;-66
2022/10/31 06:54:18;;;;;;;15.35;6.80;;;;;;;6.81;90.89;94267.44;5030326;28;20042;-69
2022/10/31 06:56:46;;;;;;;15.90;8.15;;;;;;;7.23;90.22;94268.00;5042903;28;20053;-64
2022/10/31 06:59:14;;;;;;;14.50;7.13;;;;;;;7.26;89.84;94265.25;5050077;28;20148;-64
2022/10/31 07:01:41;;;;;;;12.35;6.30;;;;;;;7.59;88.71;94269.63;5050021;28;20049;-64
2022/10/31 07:04:11;;;;;;;12.55;6.13;;;;;;;7.94;88.33;94259.91;5049873;28;20047;-68
2022/10/31 07:06:38;;;;;;;13.18;5.72;;;;;;;8.66;83.72;94256.34;5048180;28;20045;-67
2022/10/31 07:09:05;;;;;;;17.02;6.25;;;;;;;9.70;79.64;94259.41;5049644;28;20043;-67
2022/10/31 07:11:31;;;;;;;15.37;6.93;;;;;;;10.50;77.06;94262.34;5049841;28;20045;-65
2022/10/31 07:13:58;;;;;;;13.27;6.07;;;;;;;10.59;74.29;94265.41;5048614;28;20121;-65
2022/10/31 07:16:25;;;;;;;13.02;5.80;;;;;;;10.96;72.12;94258.34;5049864;28;20040;-66
2022/10/31 07:18:51;;;;;;;12.30;5.70;;;;;;;10.54;72.48;94263.88;5049024;28;20118;-65
2022/10/31 07:21:18;;;;;;;18.80;6.07;;;;;;;10.75;73.55;94264.84;5049671;28;20102;-65
2022/10/31 07:23:47;;;;;;;13.97;5.67;;;;;;;11.74;69.65;94258.53;5049214;28;20095;-65
2022/10/31 07:26:14;;;;;;;11.82;5.50;;;;;;;12.27;67.79;94269.94;5049105;28;20107;-65
2022/10/31 07:28:41;;;;;;;13.00;5.65;;;;;;;12.35;68.00;94268.63;5049146;28;20045;-68
2022/10/31 07:31:07;;;;;;;15.07;5.90;;;;;;;12.83;64.99;94269.41;5049286;28;20040;-65
2022/10/31 07:33:34;;;;;;;12.80;6.00;;;;;;;13.47;64.02;94270.16;5049184;28;20409;-65
2022/10/31 07:36:01;;;;;;;9.47;5.43;;;;;;;13.24;62.54;94280.03;5049265;28;20041;-65
2022/10/31 07:38:27;;;;;;;11.05;5.50;;;;;;;12.74;64.55;94278.22;5049436;28;20455;-65
2022/10/31 07:40:54;;;;;;;11.38;5.80;;;;;;;12.82;64.36;94284.34;5048679;28;20049;-76
2022/10/31 07:43:21;;;;;;;12.02;6.32;;;;;;;13.30;63.24;94277.56;5049252;28;20044;-67
2022/10/31 07:45:52;;;;;;;16.33;9.60;;;;;;;13.09;63.63;94281.50;5048710;28;20049;-65
2022/10/31 07:48:19;;;;;;;12.60;6.80;;;;;;;13.24;63.15;94282.00;5048558;28;20044;-69
2022/10/31 07:50:46;;;;;;;11.57;6.22;;;;;;;13.58;62.61;94285.28;5048329;28;20045;-68
2022/10/31 07:53:14;;;;;;;13.15;6.60;;;;;;;13.91;61.56;94285.34;5049042;28;20048;-65
2022/10/31 07:55:41;;;;;;;11.95;6.03;;;;;;;14.25;59.71;94284.19;5048601;28;20049;-65
2022/10/31 07:58:11;;;;;;;11.20;5.93;;;;;;;14.81;58.65;94280.50;5047300;28;20045;-65
2022/10/31 08:00:40;;;;;;;10.40;5.63;;;;;;;14.58;58.83;94282.22;5048437;28;20049;-68
2022/10/31 08:03:10;;;;;;;9.82;5.80;;;;;;;14.38;59.44;94285.06;5048602;28;20037;-65
2022/10/31 08:05:38;;;;;;;8.98;5.90;;;;;;;14.68;58.94;94279.66;5047363;28;20056;-67
2022/10/31 08:08:04;;;;;;;12.80;6.20;;;;;;;15.02;57.75;94281.16;5048724;28;20040;-66
2022/10/31 08:10:33;;;;;;;13.18;6.20;;;;;;;15.54;56.63;94278.13;5048635;28;20051;-65
2022/10/31 08:13:08;;;;;;;9.43;6.20;;;;;;;15.93;55.95;94280.97;5047421;28;20613;-65
2022/10/31 08:15:38;;;;;;;12.38;6.50;;;;;;;15.92;55.60;94284.97;5048164;28;20106;-65
2022/10/31 08:18:06;;;;;;;11.55;6.55;;;;;;;16.26;56.28;94289.06;5047267;28;20041;-70
2022/10/31 08:20:33;;;;;;;10.43;5.60;;;;;;;16.20;55.27;94288.06;5048534;28;20098;-66
2022/10/31 08:23:02;;;;;;;11.77;5.15;;;;;;;17.44;53.24;94282.38;5047191;28;20770;-70
2022/10/31 08:25:30;;;;;;;9.67;5.23;;;;;;;16.44;54.87;94291.28;5048646;28;20082;-65
2022/10/31 08:28:04;;;;;;;8.02;4.85;;;;;;;17.36;52.39;94281.88;5046275;28;20686;-68
2022/10/31 08:30:34;;;;;;;10.32;5.18;;;;;;;18.39;49.52;94275.69;5048555;28;20057;-66
2022/10/31 08:33:15;;;;;;;10.27;5.38;;;;;;;18.48;49.26;94274.94;5047443;28;21700;-66
2022/10/31 08:35:42;;;;;;;10.80;5.38;;;;;;;18.78;49.17;94265.00;5048009;28;20102;-65
2022/10/31 08:38:11;;;;;;;12.57;5.70;;;;;;;18.41;48.66;94266.88;5048275;28;20045;-70
2022/10/31 08:40:38;;;;;;;11.35;5.38;;;;;;;19.85;46.16;94261.63;5046582;28;20049;-69
2022/10/31 08:43:16;;;;;;;13.00;5.93;;;;;;;18.06;49.66;94262.28;5048188;28;20049;-67
2022/10/31 08:45:47;;;;;;;10.65;5.72;;;;;;;19.10;48.00;94257.34;5047843;28;20078;-66
2022/10/31 08:48:15;;;;;;;10.93;5.32;;;;;;;18.05;50.42;94262.72;5047837;28;20086;-66
2022/10/31 08:50:44;;;;;;;12.77;5.50;;;;;;;17.89;50.79;94258.97;5046422;28;20045;-65
2022/10/31 08:53:16;;;;;;;9.77;5.43;;;;;;;18.36;50.84;94254.38;5047781;28;20039;-66
2022/10/31 08:55:44;;;;;;;12.20;5.30;;;;;;;19.42;48.70;94255.16;5047456;28;20041;-66
2022/10/31 08:58:14;;;;;;;8.13;5.03;;;;;;;20.23;46.54;94252.69;5048153;28;20041;-65
2022/10/31 09:00:41;;;;;;;11.32;5.28;;;;;;;21.22;44.30;94250.28;5047530;28;20053;-65
2022/10/31 09:03:14;;;;;;;11.90;5.00;;;;;;;22.37;42.16;94238.63;5047875;28;20041;-66
2022/10/31 09:05:41;;;;;;;9.52;5.20;;;;;;;22.90;41.88;94243.97;5047595;28;20098;-66
2022/10/31 09:08:08;;;;;;;11.52;6.00;;;;;;;23.03;40.63;94235.25;5047783;28;20037;-69
2022/10/31 09:10:43;;;;;;;11.25;5.80;;;;;;;21.89;42.61;94234.00;5047169;28;20053;-66
2022/10/31 09:13:15;;;;;;;11.65;5.97;;;;;;;22.82;41.19;94233.66;5047572;28;20044;-65
2022/10/31 09:15:43;;;;;;;10.17;5.37;;;;;;;22.58;41.63;94226.25;5048622;28;20048;-67
2022/10/31 09:18:12;;;;;;;9.80;5.60;;;;;;;21.91;42.91;94228.72;5051640;28;20041;-71
2022/10/31 09:20:40;;;;;;;14.73;5.63;;;;;;;22.33;42.80;94227.63;5051371;28;20056;-69
2022/10/31 09:23:10;;;;;;;11.07;5.20;;;;;;;23.08;39.81;94223.38;5051991;28;20048;-66
2022/10/31 09:25:37;;;;;;;10.63;4.80;;;;;;;22.78;40.83;94225.50;5051581;28;20067;-67
2022/10/31 09:28:06;;;;;;;9.87;4.90;;;;;;;22.50;41.70;94217.47;5050418;28;20045;-70
2022/10/31 09:30:34;;;;;;;12.20;4.80;;;;;;;22.94;40.87;94227.75;5051801;28;20053;-67
2022/10/31 09:33:04;;;;;;;9.45;5.00;;;;;;;22.67;41.77;94225.34;5046547;28;21596;-69
2022/10/31 09:35:31;;;;;;;12.50;5.30;;;;;;;22.96;41.48;94229.28;5051919;28;20520;-69
2022/10/31 09:38:00;;;;;;;10.95;5.35;;;;;;;24.37;39.74;94228.75;5051532;28;20107;-67
2022/10/31 09:40:34;;;;;;;9.83;5.03;;;;;;;24.35;40.70;94225.66;5051586;28;20405;-65
2022/10/31 09:43:33;;;;;;;12.15;5.65;;;;;;;24.81;38.60;94232.34;5050759;28;20693;-67
2022/10/31 09:46:26;;;;;;;15.07;5.80;;;;;;;23.74;40.31;94226.63;5050544;28;20073;-70
2022/10/31 09:49:04;;;;;;;11.15;5.60;;;;;;;24.48;38.91;94219.63;5050842;28;20109;-66
2022/10/31 09:51:34;;;;;;;10.77;5.15;;;;;;;25.31;38.20;94220.63;5051384;28;20055;-67
2022/10/31 09:54:13;;;;;;;9.97;4.60;;;;;;;25.67;36.30;94218.94;5050435;28;20047;-67
2022/10/31 09:56:40;;;;;;;11.27;5.20;;;;;;;23.85;38.92;94220.41;5050685;28;20413;-70
2022/10/31 09:59:18;;;;;;;10.57;5.50;;;;;;;23.97;39.62;94215.66;5051047;28;20105;-69
2022/10/31 10:01:55;;;;;;;10.95;4.82;;;;;;;20.54;47.54;94224.50;5049724;28;20053;-67
2022/10/31 10:04:40;;;;;;;10.20;4.40;;;;;;;23.97;40.67;94210.81;5050957;28;20041;-66
2022/10/31 10:07:19;;;;;;;10.60;5.10;;;;;;;22.44;43.38;94205.44;5050047;28;20761;-70
2022/10/31 10:09:46;;;;;;;13.48;4.75;;;;;;;23.50;41.11;94208.06;5050299;28;20037;-67
2022/10/31 10:12:28;;;;;;;11.55;4.40;;;;;;;24.08;40.57;94198.94;5050348;28;20047;-66
2022/10/31 10:15:23;;;;;;;8.32;4.30;;;;;;;25.65;37.58;94196.19;5050524;28;20433;-69
2022/10/31 10:18:04;;;;;;;8.85;4.15;;;;;;;27.75;33.58;94193.75;5050381;28;20055;-68
2022/10/31 10:21:06;;;;;;;9.83;4.30;;;;;;;27.32;34.36;94191.44;5051009;28;20547;-67
2022/10/31 10:23:54;;;;;;;8.27;3.88;;;;;;;27.35;32.54;94187.59;5050257;28;20631;-67
2022/10/31 10:26:26;;;;;;;11.68;4.20;;;;;;;26.31;33.87;94190.38;5049486;28;20873;-68
2022/10/31 10:29:21;;;;;;;8.43;4.05;;;;;;;27.88;32.19;94185.50;5049615;28;20045;-65
2022/10/31 10:31:51;;;;;;;8.35;3.80;;;;;;;27.63;32.08;94184.63;5050209;28;20043;-67
2022/10/31 10:34:26;;;;;;;9.10;3.60;;;;;;;25.95;34.45;94180.94;5050563;28;20509;-66
2022/10/31 10:36:55;;;;;;;8.77;3.50;;;;;;;26.16;34.49;94182.22;5049007;28;20060;-69
2022/10/31 10:39:40;;;;;;;9.43;3.88;;;;;;;25.11;35.80;94176.59;5050156;28;20053;-67
2022/10/31 10:48:09;;;;;;;13.80;4.87;;;;;;;25.21;36.61;94169.53;5049596;28;20045;-67
2022/10/31 10:50:41;;;;;;;10.50;4.60;;;;;;;24.78;37.56;94163.97;5049704;28;20456;-67
2022/10/31 10:53:48;;;;;;;11.88;4.90;;;;;;;24.95;37.39;94154.84;5050057;28;20102;-67
2022/10/31 10:56:31;;;;;;;9.68;4.70;;;;;;;24.78;37.58;94161.16;5048726;28;21687;-67
2022/10/31 10:58:57;;;;;;;11.57;5.00;;;;;;;24.43;38.17;94159.41;5049524;28;20036;-66
2022/10/31 11:01:25;;;;;;;11.47;4.70;;;;;;;25.23;37.59;94141.72;5049658;28;20299;-69
2022/10/31 11:03:51;;;;;;;10.35;4.88;;;;;;;24.82;37.74;94146.88;5049416;28;20040;-70
2022/10/31 11:06:25;;;;;;;15.05;4.95;;;;;;;25.30;37.15;94146.06;5049876;28;20094;-68
2022/10/31 11:08:53;;;;;;;10.75;4.90;;;;;;;23.09;41.47;94146.50;5049447;28;20047;-66
2022/10/31 11:11:25;;;;;;;11.02;5.10;;;;;;;22.94;42.28;94137.44;5049721;28;20044;-66
2022/10/31 11:13:59;;;;;;;13.47;5.80;;;;;;;22.05;44.71;94143.31;5048997;28;20041;-66
2022/10/31 11:16:26;;;;;;;15.00;5.90;;;;;;;21.35;46.06;94130.75;5049169;28;20051;-67
2022/10/31 11:18:53;;;;;;;14.45;5.50;;;;;;;20.94;47.40;94138.88;5048602;28;20110;-67
2022/10/31 11:21:25;;;;;;;12.15;5.13;;;;;;;20.88;48.29;94132.41;5049639;28;20075;-69
2022/10/31 11:24:10;;;;;;;14.38;5.30;;;;;;;20.95;48.14;94138.41;5049138;28;20079;-66
2022/10/31 11:26:39;;;;;;;11.90;4.90;;;;;;;20.66;48.95;94133.50;5049003;28;20428;-68
2022/10/31 11:29:13;;;;;;;11.65;5.10;;;;;;;20.42;49.81;94130.72;5049564;28;20555;-66
2022/10/31 11:31:40;;;;;;;12.48;6.10;;;;;;;20.12;50.69;94133.38;5048864;28;20390;-69
2022/10/31 11:34:34;;;;;;;12.63;6.10;;;;;;;19.94;51.31;94130.66;5049371;28;20078;-68
2022/10/31 11:37:15;;;;;;;17.42;5.85;;;;;;;19.98;51.60;94131.28;5047475;28;21538;-66
2022/10/31 11:39:53;;;;;;;14.13;5.27;;;;;;;19.54;53.21;94126.19;5047758;28;20045;-69
2022/10/31 11:42:36;;;;;;;14.80;5.25;;;;;;;20.01;52.75;94133.13;5049147;28;20037;-69
2022/10/31 11:45:14;;;;;;;17.63;5.82;;;;;;;20.05;52.31;94119.78;5048413;28;20186;-67
2022/10/31 11:47:46;;;;;;;9.48;4.70;;;;;;;19.84;52.19;94124.38;5048311;28;20057;-66
2022/10/31 11:50:21;;;;;;;12.85;5.82;;;;;;;19.27;53.50;94122.22;5047999;28;20053;-69
2022/10/31 11:52:49;;;;;;;12.80;5.47;;;;;;;19.08;54.88;94115.91;5048523;28;20413;-67